Time;durP1;ratioP1;P1;durP2;ratioP2;P2;SDS_P1;SDS_P2;PMS_P1;PMS_P2;Temp;Humidity;BMP_temperature;BMP_pressure;BME280_temperature;BME280_humidity;BME280_pressure;Samples;Min_cycle;Max_cycle;Signal;HPM_P1;HPM_P2
2023/01/11 00:01:14;;;;;;;2.20;1.42;;;4.30;99.90;;;;;;6367467;23;20011;-64
2023/01/11 00:03:48;;;;;;;3.95;1.58;;;4.20;99.90;;;;;;6418376;23;20009;-66
2023/01/11 00:06:22;;;;;;;2.75;1.50;;;4.20;99.90;;;;;;6379351;23;20016;-65
2023/01/11 00:08:55;;;;;;;3.93;1.50;;;4.10;99.90;;;;;;6419378;23;20194;-63
2023/01/11 00:11:27;;;;;;;4.57;1.75;;;4.00;99.90;;;;;;6418032;23;20539;-65
2023/01/11 00:13:58;;;;;;;3.10;1.58;;;4.00;99.90;;;;;;6395146;23;20060;-64
2023/01/11 00:16:32;;;;;;;3.17;1.45;;;4.00;99.90;;;;;;6418085;23;20299;-64
2023/01/11 00:19:06;;;;;;;;;;;4.00;99.90;;;;;;6419590;23;20088;-65
2023/01/11 00:21:49;;;;;;;4.95;1.55;;;3.90;99.90;;;;;;6417083;23;19910;-65
2023/01/11 00:24:25;;;;;;;4.15;2.15;;;3.90;99.90;;;;;;6419084;23;20213;-63
2023/01/11 00:27:02;;;;;;;4.20;1.63;;;3.90;99.90;;;;;;6417481;23;20526;-64
2023/01/11 00:29:33;;;;;;;4.82;1.92;;;3.90;99.90;;;;;;6445669;22;20009;-65
2023/01/11 00:32:09;;;;;;;5.15;2.00;;;3.90;99.90;;;;;;6418046;23;20461;-65
2023/01/11 00:34:42;;;;;;;8.93;2.28;;;4.00;99.90;;;;;;6390727;23;20007;-65
2023/01/11 00:37:13;;;;;;;3.17;1.50;;;4.00;99.90;;;;;;6393294;23;20006;-65
2023/01/11 00:39:50;;;;;;;3.83;1.60;;;4.10;99.90;;;;;;6421088;23;20000;-65
2023/01/11 00:48:04;;;;;;;4.57;1.63;;;3.90;99.90;;;;;;6423098;23;20048;-67
2023/01/11 00:50:39;;;;;;;2.63;1.42;;;3.80;99.90;;;;;;6420102;23;20001;-66
2023/01/11 00:53:11;;;;;;;1.95;1.65;;;3.70;99.90;;;;;;6395074;23;19993;-66
2023/01/11 00:55:47;;;;;;;4.68;1.88;;;3.70;99.90;;;;;;6421056;23;19988;-64
2023/01/11 00:58:20;;;;;;;2.45;2.00;;;3.60;99.90;;;;;;6444362;22;19999;-63
2023/01/11 01:00:55;;;;;;;5.28;2.30;;;3.60;99.90;;;;;;6391314;23;20910;-66
2023/01/11 01:03:29;;;;;;;5.07;2.63;;;3.40;99.90;;;;;;6256888;23;20022;-65
2023/01/11 01:06:03;;;;;;;3.58;2.33;;;3.30;99.90;;;;;;6253655;23;20069;-65
2023/01/11 01:08:48;;;;;;;4.00;1.50;;;3.20;99.90;;;;;;6263553;23;19995;-66
2023/01/11 01:11:22;;;;;;;2.00;1.63;;;3.20;99.90;;;;;;6239505;23;20384;-66
2023/01/11 01:16:50;;;;;;;6.00;1.95;;;3.10;99.90;;;;;;6266403;23;20076;-63
2023/01/11 01:19:22;;;;;;;2.90;1.80;;;3.10;99.90;;;;;;6264727;23;20029;-65
2023/01/11 01:21:58;;;;;;;2.47;1.70;;;3.00;99.90;;;;;;6288019;23;20209;-63
2023/01/11 01:24:32;;;;;;;2.75;1.85;;;3.00;99.90;;;;;;6290735;23;20006;-65
2023/01/11 01:27:04;;;;;;;3.47;1.70;;;3.00;99.90;;;;;;6264479;23;20062;-65
2023/01/11 01:29:39;;;;;;;4.70;2.15;;;3.00;99.90;;;;;;6264632;23;19999;-64
2023/01/11 01:32:15;;;;;;;5.70;1.90;;;3.10;99.90;;;;;;6262917;23;19995;-64
2023/01/11 01:34:52;;;;;;;4.30;1.50;;;3.10;99.90;;;;;;6265371;23;20047;-66
2023/01/11 01:37:28;;;;;;;4.38;2.15;;;3.20;99.90;;;;;;6215011;23;19998;-65
2023/01/11 01:40:05;;;;;;;4.50;1.48;;;3.10;99.90;;;;;;6264808;23;20002;-65
2023/01/11 01:42:40;;;;;;;2.90;1.73;;;3.00;99.90;;;;;;6263647;23;19991;-64
2023/01/11 01:45:35;;;;;;;2.42;1.63;;;2.90;99.90;;;;;;6262476;23;20351;-66
2023/01/11 01:48:11;;;;;;;2.35;1.73;;;2.90;99.90;;;;;;6288424;23;20009;-65
2023/01/11 01:51:10;;;;;;;2.80;1.42;;;2.80;99.90;;;;;;6236316;23;20385;-66
2023/01/11 01:53:47;;;;;;;5.55;1.73;;;2.70;99.90;;;;;;6261067;23;20009;-65
2023/01/11 01:56:32;;;;;;;6.75;2.28;;;2.60;99.90;;;;;;6265001;23;19998;-65
2023/01/11 01:59:14;;;;;;;1.90;1.25;;;2.60;99.90;;;;;;6263887;23;20003;-66
2023/01/11 02:01:48;;;;;;;2.78;1.80;;;2.50;99.90;;;;;;6286519;23;20010;-63
2023/01/11 02:04:31;;;;;;;2.92;1.80;;;2.50;99.90;;;;;;6276416;22;20058;-65
2023/01/11 02:07:09;;;;;;;6.07;1.70;;;2.50;99.90;;;;;;6262288;23;20194;-64
2023/01/11 02:10:11;;;;;;;3.50;1.70;;;2.50;99.90;;;;;;6264981;23;20327;-66
2023/01/11 02:12:57;;;;;;;2.90;1.42;;;2.40;99.90;;;;;;6263698;23;20029;-65
2023/01/11 02:15:31;;;;;;;3.97;1.80;;;2.40;99.90;;;;;;6287662;23;20009;-64
2023/01/11 02:18:09;;;;;;;5.35;1.90;;;2.50;99.90;;;;;;6364055;23;20209;-66
2023/01/11 02:20:59;;;;;;;2.10;1.42;;;2.40;99.90;;;;;;6284808;23;20009;-64
2023/01/11 02:23:48;;;;;;;7.10;1.95;;;2.40;99.90;;;;;;6257908;23;20284;-63
2023/01/11 02:27:04;;;;;;;3.55;1.60;;;2.30;99.90;;;;;;6287615;23;20003;-65
2023/01/11 02:30:07;;;;;;;3.70;1.75;;;2.20;99.90;;;;;;6297778;23;20011;-65
2023/01/11 02:32:50;;;;;;;3.17;1.40;;;2.20;99.90;;;;;;6263615;23;19998;-65
2023/01/11 02:35:48;;;;;;;5.47;1.88;;;2.20;99.90;;;;;;6262180;23;20013;-64
2023/01/11 02:38:32;;;;;;;2.10;1.48;;;2.10;99.90;;;;;;6264890;23;20517;-64
2023/01/11 02:41:20;;;;;;;6.60;1.88;;;2.20;99.90;;;;;;6286324;23;20003;-64
2023/01/11 02:47:02;;;;;;;10.00;1.80;;;2.30;99.90;;;;;;6263898;23;20003;-64
2023/01/11 02:49:55;;;;;;;2.28;1.35;;;2.30;99.90;;;;;;6365106;23;20459;-65
2023/01/11 02:52:52;;;;;;;3.42;1.50;;;2.20;99.90;;;;;;6283151;23;19995;-66
2023/01/11 02:55:32;;;;;;;5.05;1.83;;;2.50;99.90;;;;;;6287266;23;20218;-64
2023/01/11 02:58:09;;;;;;;3.58;1.73;;;2.30;99.90;;;;;;6264406;23;20679;-64
2023/01/11 03:00:44;;;;;;;6.13;2.00;;;2.40;99.90;;;;;;6363395;23;20331;-64
2023/01/11 03:03:29;;;;;;;2.42;1.60;;;2.30;99.90;;;;;;6380683;23;20066;-64
2023/01/11 03:06:33;;;;;;;2.53;1.67;;;2.30;99.90;;;;;;6288883;22;20018;-64
2023/01/11 03:09:36;;;;;;;2.03;1.58;;;2.30;99.90;;;;;;6283228;23;20050;-66
2023/01/11 03:15:41;;;;;;;2.50;1.75;;;2.10;99.90;;;;;;6280966;23;20054;-64
2023/01/11 03:18:14;;;;;;;4.47;1.77;;;2.00;99.90;;;;;;6304253;23;20050;-63
2023/01/11 03:21:04;;;;;;;3.42;2.15;;;1.90;99.90;;;;;;6279721;23;20058;-64
2023/01/11 03:23:50;;;;;;;4.57;1.88;;;1.90;99.90;;;;;;6279851;23;20054;-65
2023/01/11 03:26:33;;;;;;;5.80;1.70;;;1.90;99.90;;;;;;6281347;23;20046;-63
2023/01/11 03:29:23;;;;;;;3.80;1.90;;;1.90;99.90;;;;;;6282037;23;20046;-64
2023/01/11 03:32:24;;;;;;;3.70;1.92;;;1.90;99.90;;;;;;6304867;23;20050;-65
2023/01/11 03:35:14;;;;;;;5.60;1.88;;;1.90;99.90;;;;;;6285017;23;20046;-64
2023/01/11 03:37:58;;;;;;;5.20;1.40;;;1.90;99.90;;;;;;6304375;23;20050;-63
2023/01/11 03:40:33;;;;;;;5.38;1.73;;;1.90;99.90;;;;;;6381526;23;20058;-64
2023/01/11 03:43:12;;;;;;;2.03;1.70;;;1.80;99.90;;;;;;6279354;23;20325;-61
2023/01/11 03:46:00;;;;;;;2.17;1.85;;;1.70;99.90;;;;;;6382205;23;20046;-64
2023/01/11 03:48:46;;;;;;;25.35;18.13;;;1.70;99.90;;;;;;6280041;23;20054;-65
2023/01/11 03:51:26;;;;;;;7.85;3.20;;;1.60;99.90;;;;;;6280139;23;20110;-64
2023/01/11 03:53:59;;;;;;;5.40;2.33;;;1.50;99.90;;;;;;6406272;23;20050;-63
2023/01/11 03:56:53;;;;;;;2.03;1.80;;;1.40;99.90;;;;;;6279454;23;20050;-64
2023/01/11 03:59:29;;;;;;;2.42;1.58;;;1.60;99.90;;;;;;6381355;23;20046;-64
2023/01/11 04:02:01;;;;;;;4.40;2.40;;;1.60;99.90;;;;;;6270294;23;20050;-65
2023/01/11 04:04:32;;;;;;;4.82;2.60;;;1.50;99.90;;;;;;6254012;22;20041;-64
2023/01/11 04:07:06;;;;;;;4.75;2.28;;;1.40;99.90;;;;;;6239627;23;20011;-64
2023/01/11 04:09:44;;;;;;;4.85;1.65;;;1.10;99.90;;;;;;6264014;23;19998;-65
2023/01/11 04:12:20;;;;;;;2.67;1.60;;;0.90;99.90;;;;;;6259530;23;20014;-64
2023/01/11 04:14:54;;;;;;;2.50;1.70;;;0.70;99.90;;;;;;6365635;23;20063;-64
2023/01/11 04:17:27;;;;;;;4.32;2.00;;;0.50;99.90;;;;;;6241688;23;20423;-65
2023/01/11 04:20:07;;;;;;;7.10;3.03;;;0.40;99.90;;;;;;6266800;23;20002;-64
2023/01/11 04:22:38;;;;;;;8.95;2.00;;;0.40;99.90;;;;;;6364155;23;20469;-66
2023/01/11 04:25:20;;;;;;;5.03;2.42;;;0.40;99.90;;;;;;6261492;23;20029;-63
2023/01/11 04:27:55;;;;;;;3.75;2.00;;;0.30;99.90;;;;;;6267222;23;20009;-64
2023/01/11 04:30:26;;;;;;;5.32;1.83;;;0.30;99.90;;;;;;6264791;23;20042;-63
2023/01/11 04:33:03;;;;;;;3.85;2.33;;;0.20;99.90;;;;;;6261614;23;19998;-63
2023/01/11 04:35:37;;;;;;;5.47;2.58;;;0.20;99.90;;;;;;6287335;23;20085;-62
2023/01/11 04:38:12;;;;;;;3.40;1.92;;;0.20;99.90;;;;;;6266820;23;20078;-61
2023/01/11 04:40:44;;;;;;;6.97;3.35;;;0.20;99.90;;;;;;6266963;23;20062;-63
2023/01/11 04:43:18;;;;;;;3.30;2.65;;;0.30;99.90;;;;;;6265515;23;20512;-65
2023/01/11 04:45:54;;;;;;;11.48;3.75;;;0.50;99.90;;;;;;6392113;23;19999;-63
2023/01/11 04:48:28;;;;;;;4.03;2.55;;;0.60;99.90;;;;;;6241334;23;19999;-62
2023/01/11 04:51:01;;;;;;;7.47;2.53;;;1.00;99.90;;;;;;6363404;23;20007;-62
2023/01/11 04:53:38;;;;;;;4.95;2.60;;;1.20;99.90;;;;;;6397934;23;19997;-62
2023/01/11 04:56:12;;;;;;;5.35;2.42;;;1.10;99.90;;;;;;6365596;23;20018;-63
2023/01/11 04:58:49;;;;;;;;;;;1.00;99.90;;;;;;6241145;23;20054;-63
2023/01/11 05:01:24;;;;;;;4.53;2.60;;;0.80;99.90;;;;;;6288291;23;19914;-62
2023/01/11 05:03:55;;;;;;;6.25;2.25;;;0.70;99.90;;;;;;6390532;23;20007;-64
2023/01/11 05:06:31;;;;;;;5.55;2.63;;;0.60;99.90;;;;;;6347583;23;20011;-62
2023/01/11 05:09:03;;;;;;;6.65;2.35;;;0.50;99.90;;;;;;6264321;23;20066;-62
2023/01/11 05:11:34;;;;;;;4.57;2.00;;;0.60;99.90;;;;;;6365235;23;20021;-62
2023/01/11 05:14:05;;;;;;;3.67;2.30;;;0.70;99.90;;;;;;6364910;23;19999;-63
2023/01/11 05:16:39;;;;;;;2.78;2.17;;;0.70;99.90;;;;;;6365859;23;20370;-62
2023/01/11 05:19:11;;;;;;;5.03;2.20;;;0.70;99.90;;;;;;6390894;23;20003;-62
2023/01/11 05:21:47;;;;;;;5.68;2.45;;;0.60;99.90;;;;;;6389720;23;19999;-62
2023/01/11 05:24:19;;;;;;;4.75;2.45;;;0.50;99.90;;;;;;6288034;23;20005;-62
2023/01/11 05:26:51;;;;;;;3.20;2.00;;;0.50;99.90;;;;;;6363030;23;19999;-61
2023/01/11 05:29:24;;;;;;;3.42;2.22;;;0.50;99.90;;;;;;6265430;23;20045;-61
2023/01/11 05:31:58;;;;;;;4.28;2.40;;;0.40;99.90;;;;;;6389644;23;20003;-63
2023/01/11 05:34:35;;;;;;;6.55;2.00;;;0.30;99.90;;;;;;6365958;23;20058;-62
2023/01/11 05:37:07;;;;;;;3.53;2.35;;;0.10;99.90;;;;;;6285729;23;20003;-61
2023/01/11 05:39:39;;;;;;;4.88;2.05;;;0.10;99.90;;;;;;6365898;23;20242;-63
2023/01/11 05:42:10;;;;;;;1.85;1.67;;;0.20;99.90;;;;;;6264939;23;20003;-61
2023/01/11 05:47:31;;;;;;;8.95;3.03;;;0.30;99.90;;;;;;6264402;23;20054;-62
2023/01/11 05:50:02;;;;;;;3.90;2.30;;;0.60;99.90;;;;;;6365341;23;20013;-62
2023/01/11 05:52:33;;;;;;;7.30;2.92;;;0.70;99.90;;;;;;6260850;23;19999;-62
2023/01/11 05:55:05;;;;;;;5.65;3.38;;;0.80;99.90;;;;;;6366587;23;20070;-65
2023/01/11 05:57:43;;;;;;;5.00;2.55;;;0.70;99.90;;;;;;6266111;23;20046;-61
2023/01/11 06:00:14;;;;;;;3.28;2.35;;;0.50;99.90;;;;;;6239562;23;20013;-62
2023/01/11 06:02:46;;;;;;;9.68;4.57;;;0.30;99.90;;;;;;6261213;23;20010;-63
2023/01/11 06:05:17;;;;;;;10.80;3.42;;;0.10;99.90;;;;;;6276143;22;20016;-62
2023/01/11 06:07:57;;;;;;;6.95;3.50;;;0.00;99.90;;;;;;6275665;23;20050;-61
2023/01/11 06:10:28;;;;;;;11.02;3.92;;;0.00;99.90;;;;;;6390957;23;20007;-61
2023/01/11 06:15:51;;;;;;;10.07;4.68;;;-0.10;99.90;;;;;;6264163;23;20100;-62
2023/01/11 06:18:22;;;;;;;11.47;4.27;;;-0.20;99.90;;;;;;6265741;23;19999;-61
2023/01/11 06:20:58;;;;;;;10.10;2.70;;;-0.30;99.90;;;;;;6386628;23;20210;-63
2023/01/11 06:23:33;;;;;;;8.15;2.60;;;-0.30;99.90;;;;;;6264688;23;20013;-62
2023/01/11 06:26:15;;;;;;;4.95;2.50;;;-0.40;99.90;;;;;;6287087;23;20009;-61
2023/01/11 06:28:47;;;;;;;5.50;2.45;;;-0.40;99.90;;;;;;6265520;23;20054;-62
2023/01/11 06:31:21;;;;;;;6.80;2.88;;;-0.40;99.90;;;;;;6389510;23;20198;-62
2023/01/11 06:33:52;;;;;;;12.70;5.97;;;-0.30;99.90;;;;;;6264655;23;20006;-62
2023/01/11 06:36:26;;;;;;;11.23;6.72;;;-0.30;99.90;;;;;;6236973;23;20066;-61
2023/01/11 06:38:57;;;;;;;12.32;6.15;;;-0.30;99.90;;;;;;6275583;23;20306;-61
2023/01/11 06:41:31;;;;;;;10.90;4.55;;;-0.40;99.90;;;;;;6362884;23;20009;-62
2023/01/11 06:44:02;;;;;;;9.45;3.30;;;-0.40;99.90;;;;;;6264351;23;20024;-61
2023/01/11 06:46:36;;;;;;;9.25;4.25;;;-0.40;99.90;;;;;;6366064;23;20062;-62
2023/01/11 06:49:07;;;;;;;6.13;3.40;;;-0.40;99.90;;;;;;6288196;23;20005;-62
2023/01/11 06:51:41;;;;;;;7.70;3.83;;;-0.30;99.90;;;;;;6264314;23;20279;-61
2023/01/11 06:54:20;;;;;;;;;;;-0.40;99.90;;;;;;6364792;23;20062;-62
2023/01/11 06:56:51;;;;;;;10.13;3.38;;;-0.50;99.90;;;;;;6242283;23;20113;-62
2023/01/11 06:59:26;;;;;;;11.82;3.97;;;-0.60;99.90;;;;;;6265413;23;19990;-60
2023/01/11 07:01:58;;;;;;;4.63;3.20;;;-0.50;99.90;;;;;;6264770;23;20013;-65
2023/01/11 07:04:30;;;;;;;8.13;4.07;;;-0.40;99.90;;;;;;6379510;22;20023;-60
2023/01/11 07:07:11;;;;;;;7.60;3.50;;;-0.30;99.90;;;;;;6288528;23;20003;-62
2023/01/11 07:09:42;;;;;;;6.53;3.95;;;-0.20;99.90;;;;;;6264563;23;20081;-61
2023/01/11 07:12:13;;;;;;;7.20;3.08;;;-0.20;99.90;;;;;;6381655;23;20033;-59
2023/01/11 07:14:45;;;;;;;6.05;2.50;;;-0.10;99.90;;;;;;6264663;23;20009;-62
2023/01/11 07:17:21;;;;;;;5.93;2.38;;;0.00;99.90;;;;;;6387928;23;20476;-61
2023/01/11 07:19:55;;;;;;;3.42;2.30;;;0.00;99.90;;;;;;6264055;23;20009;-60
2023/01/11 07:25:23;;;;;;;4.53;2.95;;;0.30;99.90;;;;;;6321740;23;20013;-62
2023/01/11 07:28:02;;;;;;;5.45;2.63;;;0.40;99.90;;;;;;6294838;23;20008;-61
2023/01/11 07:30:41;;;;;;;5.13;2.60;;;0.50;99.90;;;;;;6292875;23;20006;-61
2023/01/11 07:33:15;;;;;;;4.82;2.55;;;0.70;99.90;;;;;;6314518;23;20006;-61
2023/01/11 07:35:48;;;;;;;5.10;2.45;;;0.80;99.90;;;;;;6294694;23;20016;-61
2023/01/11 07:38:20;;;;;;;4.57;1.95;;;1.00;99.90;;;;;;6297456;23;20039;-61
2023/01/11 07:40:56;;;;;;;6.25;4.15;;;1.30;99.90;;;;;;6297801;23;20010;-61
2023/01/11 07:43:27;;;;;;;5.28;3.20;;;1.50;99.90;;;;;;6320208;23;20006;-61
2023/01/11 07:46:00;;;;;;;3.97;2.80;;;1.70;99.90;;;;;;6295337;23;20002;-60
2023/01/11 07:48:32;;;;;;;11.43;3.40;;;1.70;99.90;;;;;;6319279;23;20367;-62
2023/01/11 07:51:03;;;;;;;5.20;3.10;;;1.80;99.90;;;;;;6292818;23;19998;-61
2023/01/11 07:53:34;;;;;;;7.03;2.70;;;1.90;99.90;;;;;;6298725;23;20006;-61
2023/01/11 07:56:08;;;;;;;12.40;3.72;;;1.90;99.90;;;;;;6275061;23;20009;-61
2023/01/11 07:58:39;;;;;;;7.10;3.08;;;2.10;99.90;;;;;;6260491;23;20005;-60
2023/01/11 08:01:10;;;;;;;8.50;3.42;;;2.30;99.90;;;;;;6387457;23;20329;-61
2023/01/11 08:03:44;;;;;;;7.82;3.50;;;2.50;99.90;;;;;;6286876;23;20184;-60
2023/01/11 08:06:15;;;;;;;7.93;2.95;;;2.60;99.90;;;;;;6370674;23;20332;-60
2023/01/11 08:08:49;;;;;;;7.43;3.95;;;2.70;99.90;;;;;;6284852;23;20001;-60
2023/01/11 08:17:15;;;;;;;7.63;3.33;;;2.60;99.90;;;;;;6263877;23;20350;-62
2023/01/11 08:19:46;;;;;;;7.18;4.10;;;2.60;99.90;;;;;;6286519;23;20009;-61
2023/01/11 08:22:17;;;;;;;15.43;4.57;;;2.60;99.90;;;;;;6260980;23;20524;-61
2023/01/11 08:24:51;;;;;;;7.55;5.20;;;2.60;99.90;;;;;;6285767;23;20337;-61
2023/01/11 08:27:24;;;;;;;8.83;4.50;;;2.70;99.90;;;;;;6260843;23;20006;-60
2023/01/11 08:30:01;;;;;;;9.43;4.53;;;2.80;99.90;;;;;;6262248;23;20367;-62
2023/01/11 08:32:34;;;;;;;6.65;3.50;;;2.90;99.90;;;;;;6280216;23;20046;-62
2023/01/11 08:35:11;;;;;;;12.00;5.38;;;3.00;99.90;;;;;;6259243;23;20432;-62
2023/01/11 08:37:42;;;;;;;13.20;5.25;;;3.20;99.90;;;;;;6283573;23;20063;-62
2023/01/11 08:40:19;;;;;;;9.35;5.22;;;3.30;99.90;;;;;;6363490;23;20062;-62
2023/01/11 08:42:55;;;;;;;7.28;3.95;;;3.50;99.90;;;;;;6385610;23;20491;-62
2023/01/11 08:45:27;;;;;;;7.63;3.00;;;3.70;99.90;;;;;;6262818;23;20005;-62
2023/01/11 08:47:59;;;;;;;7.43;3.92;;;3.90;99.90;;;;;;6387109;23;20001;-61
2023/01/11 08:50:37;;;;;;;12.23;4.03;;;4.30;99.90;;;;;;6260026;23;19995;-63
2023/01/11 08:53:10;;;;;;;4.28;2.00;;;4.60;99.90;;;;;;6384873;23;20006;-62
2023/01/11 08:55:43;;;;;;;5.78;2.33;;;4.90;99.90;;;;;;6387281;23;20303;-62
2023/01/11 08:58:14;;;;;;;11.60;3.40;;;5.20;99.90;;;;;;6362408;23;20036;-63
2023/01/11 09:00:48;;;;;;;7.47;2.88;;;5.50;99.90;;;;;;6362968;23;20021;-62
2023/01/11 09:03:22;;;;;;;2.92;2.15;;;5.80;99.90;;;;;;6261122;23;20006;-63
2023/01/11 09:05:59;;;;;;;3.88;2.35;;;5.90;99.90;;;;;;6271418;22;20511;-63
2023/01/11 09:08:30;;;;;;;6.15;2.42;;;6.10;99.90;;;;;;6263126;23;20010;-63
2023/01/11 09:11:52;;;;;;;6.55;2.05;;;6.50;99.90;;;;;;6262081;23;20006;-65
2023/01/11 09:14:01;;;;;;;5.55;2.40;;;6.90;99.90;;;;;;6261356;23;20006;-66
2023/01/11 09:16:37;;;;;;;3.90;1.90;;;7.00;99.90;;;;;;6361985;23;20054;-65
2023/01/11 09:19:08;;;;;;;4.07;2.33;;;6.90;99.90;;;;;;6359831;23;20389;-63
2023/01/11 09:21:44;;;;;;;3.67;2.22;;;7.00;99.90;;;;;;6252668;23;20003;-63
2023/01/11 09:24:17;;;;;;;2.88;1.95;;;6.90;99.90;;;;;;6285688;23;20365;-64
2023/01/11 09:26:49;;;;;;;4.47;2.50;;;6.70;99.90;;;;;;6285715;23;20006;-65
2023/01/11 09:29:20;;;;;;;5.03;2.50;;;6.50;99.90;;;;;;6258962;23;20562;-65
2023/01/11 09:31:51;;;;;;;3.33;2.10;;;6.50;99.90;;;;;;6263915;23;20013;-66
2023/01/11 09:34:26;;;;;;;3.88;1.90;;;6.50;99.90;;;;;;6285922;23;19999;-64
2023/01/11 09:37:03;;;;;;;6.35;2.40;;;6.60;99.90;;;;;;6234418;23;20003;-63
2023/01/11 09:39:34;;;;;;;2.92;2.17;;;6.40;99.90;;;;;;6362121;23;20284;-65
2023/01/11 09:42:35;;;;;;;4.32;2.40;;;6.60;99.90;;;;;;6284117;23;20005;-65
2023/01/11 09:45:19;;;;;;;5.28;2.20;;;6.80;99.90;;;;;;6260503;23;19994;-66
2023/01/11 09:48:10;;;;;;;3.47;2.25;;;6.90;99.90;;;;;;6285227;23;20002;-65
2023/01/11 09:50:46;;;;;;;5.28;2.55;;;7.10;99.90;;;;;;6258672;23;19995;-64
2023/01/11 09:53:30;;;;;;;6.43;2.60;;;7.40;99.90;;;;;;6261669;23;20353;-66
2023/01/11 09:56:05;;;;;;;5.38;2.10;;;8.00;99.90;;;;;;6273046;22;20014;-67
2023/01/11 09:59:05;;;;;;;5.82;2.92;;;8.40;99.90;;;;;;6263221;23;20002;-64
2023/01/11 10:02:00;;;;;;;5.15;2.50;;;8.70;99.90;;;;;;6264158;23;20010;-64
2023/01/11 10:04:47;;;;;;;4.82;1.63;;;9.10;99.90;;;;;;6276591;22;20151;-65
2023/01/11 10:07:21;;;;;;;3.67;1.90;;;9.00;99.90;;;;;;6235961;23;20017;-65
2023/01/11 10:10:12;;;;;;;4.30;2.58;;;9.10;99.90;;;;;;6262473;23;20288;-66
2023/01/11 10:13:03;;;;;;;2.88;1.90;;;8.80;99.90;;;;;;6253278;23;20049;-63
2023/01/11 10:15:51;;;;;;;2.67;1.40;;;8.60;99.90;;;;;;6231688;23;20010;-63
2023/01/11 10:19:04;;;;;;;3.47;1.20;;;8.80;99.90;;;;;;6259487;23;20535;-63
2023/01/11 10:21:48;;;;;;;1.20;1.10;;;9.00;99.90;;;;;;6253623;23;20020;-64
2023/01/11 10:24:22;;;;;;;4.43;1.17;;;9.20;99.90;;;;;;6245908;23;20213;-65
2023/01/11 10:27:00;;;;;;;0.95;0.95;;;9.30;99.90;;;;;;6249255;22;20003;-63
2023/01/11 10:30:05;;;;;;;1.38;1.13;;;9.20;99.90;;;;;;6250963;23;20015;-63
2023/01/11 10:35:44;;;;;;;1.45;0.98;;;8.90;99.90;;;;;;6283509;23;20009;-64
2023/01/11 10:42:06;;;;;;;4.07;1.50;;;8.70;99.90;;;;;;6285930;23;20001;-64
2023/01/11 10:44:53;;;;;;;2.72;1.30;;;8.70;99.90;;;;;;6239264;23;20002;-64
2023/01/11 10:47:40;;;;;;;4.50;1.60;;;8.40;99.90;;;;;;6261113;23;20001;-63
2023/01/11 10:50:17;;;;;;;4.47;1.55;;;8.70;99.90;;;;;;6256726;23;20003;-65
2023/01/11 10:53:03;;;;;;;4.10;1.95;;;8.90;99.90;;;;;;6264660;23;20586;-64
2023/01/11 10:56:04;;;;;;;6.57;1.73;;;9.00;99.90;;;;;;6263146;23;20303;-65
2023/01/11 10:58:59;;;;;;;2.58;1.85;;;8.90;99.90;;;;;;6247105;22;20007;-65
2023/01/11 11:01:38;;;;;;;2.78;1.42;;;8.80;99.90;;;;;;6286236;23;19995;-65
2023/01/11 11:04:30;;;;;;;10.98;1.50;;;8.90;99.90;;;;;;6286564;22;20009;-65
2023/01/11 11:07:16;;;;;;;3.42;1.67;;;9.20;99.90;;;;;;6257683;23;20197;-65
2023/01/11 11:10:24;;;;;;;1.52;1.10;;;8.80;99.90;;;;;;6259233;23;19990;-66
2023/01/11 11:13:12;;;;;;;2.28;1.17;;;8.90;99.90;;;;;;6259152;23;20017;-66
2023/01/11 11:16:05;;;;;;;1.90;1.27;;;9.00;99.90;;;;;;6261250;23;20006;-64
2023/01/11 11:18:40;;;;;;;2.35;1.40;;;9.20;99.90;;;;;;6264460;23;20054;-66
2023/01/11 11:21:37;;;;;;;1.83;1.33;;;9.00;99.90;;;;;;6260129;23;20003;-64
2023/01/11 11:24:31;;;;;;;2.67;1.33;;;9.00;99.90;;;;;;6258029;23;20003;-64
2023/01/11 11:27:17;;;;;;;1.80;1.20;;;9.00;99.90;;;;;;6388566;23;20027;-65
2023/01/11 11:29:52;;;;;;;2.85;1.30;;;9.20;99.90;;;;;;6262920;23;20003;-63
2023/01/11 11:32:31;;;;;;;2.55;1.27;;;9.30;99.90;;;;;;6261669;23;20009;-67
2023/01/11 11:35:06;;;;;;;4.80;1.77;;;9.50;99.90;;;;;;6261211;23;20221;-66
2023/01/11 11:37:44;;;;;;;1.63;1.40;;;9.50;99.90;;;;;;6284471;23;20054;-64
2023/01/11 11:40:36;;;;;;;3.53;1.40;;;9.70;99.90;;;;;;6361555;23;20009;-65
2023/01/11 11:43:26;;;;;;;4.07;1.48;;;9.70;99.90;;;;;;6361159;23;20222;-66
2023/01/11 11:46:19;;;;;;;1.58;1.25;;;9.10;99.90;;;;;;6259709;23;20002;-65
2023/01/11 11:49:18;;;;;;;3.35;1.40;;;8.60;99.90;;;;;;6285730;23;20003;-66
2023/01/11 11:51:51;;;;;;;3.58;1.73;;;8.50;99.90;;;;;;6258769;23;20017;-64
2023/01/11 11:54:58;;;;;;;4.57;1.67;;;8.50;99.90;;;;;;6385806;23;20179;-63
2023/01/11 11:57:38;;;;;;;4.13;1.58;;;8.60;99.90;;;;;;6387516;23;20276;-64
2023/01/11 12:00:33;;;;;;;4.07;1.80;;;8.60;99.90;;;;;;6385586;23;19998;-63
2023/01/11 12:03:24;;;;;;;4.35;1.63;;;8.80;99.90;;;;;;6361110;23;20017;-66
2023/01/11 12:06:02;;;;;;;4.80;1.80;;;8.80;99.90;;;;;;6273904;22;20010;-65
2023/01/11 12:08:35;;;;;;;6.18;1.95;;;8.80;99.90;;;;;;6261050;23;19995;-67
2023/01/11 12:11:21;;;;;;;5.97;2.55;;;8.70;99.90;;;;;;6262984;23;20003;-64
2023/01/11 12:14:10;;;;;;;7.00;2.10;;;8.90;99.90;;;;;;6378770;22;20052;-64
2023/01/11 12:16:46;;;;;;;3.92;2.10;;;9.10;99.90;;;;;;6269449;23;20134;-65
2023/01/11 12:19:29;;;;;;;4.65;2.20;;;9.20;99.90;;;;;;6284550;23;20003;-65
2023/01/11 12:22:20;;;;;;;5.70;2.00;;;9.40;99.90;;;;;;6277598;23;20005;-62
2023/01/11 12:25:14;;;;;;;5.90;1.98;;;9.50;99.90;;;;;;6264051;23;20318;-62
2023/01/11 12:28:06;;;;;;;2.10;1.70;;;9.60;99.90;;;;;;6261107;23;20001;-63
2023/01/11 12:31:02;;;;;;;2.38;1.50;;;9.80;99.90;;;;;;6363492;23;20003;-66
2023/01/11 12:33:37;;;;;;;3.55;2.13;;;9.60;99.90;;;;;;6263292;23;20234;-65
2023/01/11 12:36:31;;;;;;;;;;;9.80;99.90;;;;;;6260695;23;20558;-63
2023/01/11 12:39:08;;;;;;;2.50;2.00;;;9.80;99.90;;;;;;6226384;23;19897;-67
2023/01/11 12:41:51;;;;;;;6.70;2.28;;;9.70;99.90;;;;;;6261491;23;20037;-64
2023/01/11 12:44:40;;;;;;;6.13;2.10;;;9.50;99.90;;;;;;6260489;23;20005;-64
2023/01/11 12:47:17;;;;;;;5.80;2.67;;;8.80;99.90;;;;;;6253300;22;20021;-63
2023/01/11 12:50:04;;;;;;;3.22;2.10;;;8.70;99.90;;;;;;6265471;23;20332;-65
2023/01/11 12:52:42;;;;;;;3.58;1.65;;;8.80;99.90;;;;;;6262044;23;20006;-63
2023/01/11 12:55:25;;;;;;;4.22;1.65;;;9.00;99.90;;;;;;6261149;23;19995;-65
2023/01/11 12:58:07;;;;;;;4.00;1.75;;;8.90;99.90;;;;;;6264542;23;20034;-64
2023/01/11 13:00:40;;;;;;;4.32;1.50;;;8.50;99.90;;;;;;6364926;23;20341;-62
2023/01/11 13:03:33;;;;;;;2.85;1.60;;;8.40;99.90;;;;;;6262727;23;20013;-66
2023/01/11 13:06:16;;;;;;;3.42;2.00;;;8.30;99.90;;;;;;6251371;22;20014;-65
2023/01/11 13:09:34;;;;;;;6.68;2.00;;;8.50;99.90;;;;;;6263062;23;20003;-63
2023/01/11 13:12:22;;;;;;;3.65;1.67;;;8.70;99.90;;;;;;6359315;23;20094;-67
2023/01/11 13:15:01;;;;;;;3.53;1.80;;;8.80;99.90;;;;;;6262352;23;20003;-70
2023/01/11 13:17:51;;;;;;;3.28;2.17;;;8.80;99.90;;;;;;6287659;23;20011;-66
2023/01/11 13:20:24;;;;;;;3.55;1.95;;;8.90;99.90;;;;;;6261100;23;20055;-65
2023/01/11 13:23:07;;;;;;;5.67;2.23;;;8.70;99.90;;;;;;6264208;23;20058;-64
2023/01/11 13:25:46;;;;;;;2.83;1.92;;;8.60;99.90;;;;;;6273412;23;20225;-65
2023/01/11 13:28:40;;;;;;;2.35;1.55;;;8.50;99.90;;;;;;6395101;23;20002;-66
2023/01/11 13:31:13;;;;;;;1.95;1.70;;;8.30;99.90;;;;;;6263531;23;20303;-66
2023/01/11 13:33:52;;;;;;;2.90;1.60;;;8.30;99.90;;;;;;6364140;23;20009;-65
2023/01/11 13:36:31;;;;;;;2.17;1.55;;;8.40;99.90;;;;;;6360216;23;19995;-65
2023/01/11 13:39:27;;;;;;;4.03;1.83;;;8.40;99.90;;;;;;6263070;23;20363;-65
2023/01/11 13:42:03;;;;;;;2.70;1.70;;;8.50;99.90;;;;;;6262968;23;20008;-65
2023/01/11 13:44:41;;;;;;;3.17;1.63;;;8.50;99.90;;;;;;6364277;23;20028;-65
2023/01/11 13:47:21;;;;;;;4.38;1.70;;;8.30;99.90;;;;;;6259244;23;20003;-63
2023/01/11 13:50:01;;;;;;;3.70;1.50;;;8.10;99.90;;;;;;6261275;23;19998;-64
2023/01/11 13:52:44;;;;;;;4.13;1.70;;;8.10;99.90;;;;;;6259071;23;20013;-64
2023/01/11 13:55:24;;;;;;;2.35;1.58;;;8.10;99.90;;;;;;6284205;23;20082;-65
2023/01/11 13:58:03;;;;;;;4.50;2.30;;;8.20;99.90;;;;;;6271633;23;20234;-65
2023/01/11 14:00:47;;;;;;;3.22;1.70;;;8.20;99.90;;;;;;6263153;23;20002;-64
2023/01/11 14:03:50;;;;;;;3.42;2.10;;;8.20;99.90;;;;;;6285395;23;20487;-65
2023/01/11 14:06:38;;;;;;;6.75;1.92;;;8.00;99.90;;;;;;6269446;22;20036;-66
2023/01/11 14:09:18;;;;;;;8.10;1.95;;;8.00;99.90;;;;;;6297411;23;20002;-65
2023/01/11 14:12:11;;;;;;;3.80;1.92;;;8.10;99.90;;;;;;6262990;23;20006;-65
2023/01/11 14:14:59;;;;;;;4.07;1.88;;;8.00;99.90;;;;;;6285791;23;20003;-66
2023/01/11 14:18:08;;;;;;;2.17;1.77;;;8.00;99.90;;;;;;6257509;23;19995;-64
2023/01/11 14:20:48;;;;;;;3.10;1.80;;;8.00;99.90;;;;;;6278034;23;19995;-63
2023/01/11 14:23:28;;;;;;;4.93;1.73;;;7.90;99.90;;;;;;6262060;23;20210;-65
2023/01/11 14:26:24;;;;;;;8.05;2.30;;;7.90;99.90;;;;;;6285558;23;20376;-64
2023/01/11 14:29:14;;;;;;;4.45;2.20;;;7.90;99.90;;;;;;6296237;23;20055;-63
2023/01/11 14:32:12;;;;;;;4.07;2.42;;;7.80;99.90;;;;;;6262745;23;20003;-64
2023/01/11 14:34:55;;;;;;;3.85;2.15;;;7.80;99.90;;;;;;6263110;23;20037;-62
2023/01/11 14:37:34;;;;;;;3.25;2.08;;;8.00;99.90;;;;;;6260154;23;20079;-63
2023/01/11 14:40:27;;;;;;;4.80;2.90;;;8.00;99.90;;;;;;6263011;23;20001;-64